sensor_id;sensor_type;location;lat;lon;timestamp;pressure;altitude;pressure_sealevel;temperature;humidity
46756;BME280;32506;52.826;-1.192;2022-08-19T00:01:54;100428.00;;;22.16;52.25
46756;BME280;32506;52.826;-1.192;2022-08-19T00:04:25;100425.84;;;22.13;52.83
46756;BME280;32506;52.826;-1.192;2022-08-19T00:06:51;100437.03;;;22.11;53.36
46756;BME280;32506;52.826;-1.192;2022-08-19T00:09:18;100434.09;;;22.08;53.14
46756;BME280;32506;52.826;-1.192;2022-08-19T00:11:45;100441.22;;;22.04;52.88
46756;BME280;32506;52.826;-1.192;2022-08-19T00:14:13;100439.91;;;22.01;53.16
46756;BME280;32506;52.826;-1.192;2022-08-19T00:16:41;100441.28;;;21.99;53.16
46756;BME280;32506;52.826;-1.192;2022-08-19T00:19:07;100436.16;;;21.97;53.46
46756;BME280;32506;52.826;-1.192;2022-08-19T00:21:33;100435.63;;;21.95;53.38
46756;BME280;32506;52.826;-1.192;2022-08-19T00:24:04;100431.56;;;21.92;53.92
46756;BME280;32506;52.826;-1.192;2022-08-19T00:26:29;100425.63;;;21.90;53.91
46756;BME280;32506;52.826;-1.192;2022-08-19T00:28:55;100428.63;;;21.89;53.45
46756;BME280;32506;52.826;-1.192;2022-08-19T00:31:21;100428.13;;;21.87;53.46
46756;BME280;32506;52.826;-1.192;2022-08-19T00:33:47;100426.78;;;21.84;53.49
46756;BME280;32506;52.826;-1.192;2022-08-19T00:36:16;100428.97;;;21.82;53.71
46756;BME280;32506;52.826;-1.192;2022-08-19T00:38:42;100430.09;;;21.81;54.20
46756;BME280;32506;52.826;-1.192;2022-08-19T00:41:13;100432.28;;;21.79;53.59
46756;BME280;32506;52.826;-1.192;2022-08-19T00:43:40;100425.53;;;21.76;53.86
46756;BME280;32506;52.826;-1.192;2022-08-19T00:46:06;100436.69;;;21.75;53.70
46756;BME280;32506;52.826;-1.192;2022-08-19T00:48:33;100431.56;;;21.73;53.85
46756;BME280;32506;52.826;-1.192;2022-08-19T00:50:59;100436.47;;;21.71;53.57
46756;BME280;32506;52.826;-1.192;2022-08-19T00:53:27;100429.69;;;21.69;54.17
46756;BME280;32506;52.826;-1.192;2022-08-19T00:55:56;100437.34;;;21.67;54.13
46756;BME280;32506;52.826;-1.192;2022-08-19T00:58:27;100433.84;;;21.66;54.37
46756;BME280;32506;52.826;-1.192;2022-08-19T01:00:53;100435.22;;;21.64;54.12
46756;BME280;32506;52.826;-1.192;2022-08-19T01:03:20;100441.75;;;21.62;53.92
46756;BME280;32506;52.826;-1.192;2022-08-19T01:05:47;100436.91;;;21.59;54.06
46756;BME280;32506;52.826;-1.192;2022-08-19T01:08:15;100443.44;;;21.58;53.80
46756;BME280;32506;52.826;-1.192;2022-08-19T01:10:47;100444.53;;;21.57;53.65
46756;BME280;32506;52.826;-1.192;2022-08-19T01:13:19;100448.34;;;21.56;53.88
46756;BME280;32506;52.826;-1.192;2022-08-19T01:15:50;100447.84;;;21.54;54.22
46756;BME280;32506;52.826;-1.192;2022-08-19T01:18:17;100447.53;;;21.56;53.95
46756;BME280;32506;52.826;-1.192;2022-08-19T01:20:44;100442.94;;;21.51;54.21
46756;BME280;32506;52.826;-1.192;2022-08-19T01:23:11;100443.22;;;21.50;54.28
46756;BME280;32506;52.826;-1.192;2022-08-19T01:25:44;100439.69;;;21.49;54.40
46756;BME280;32506;52.826;-1.192;2022-08-19T01:28:19;100436.97;;;21.49;54.23
46756;BME280;32506;52.826;-1.192;2022-08-19T01:30:45;100440.28;;;21.46;54.56
46756;BME280;32506;52.826;-1.192;2022-08-19T01:33:12;100445.72;;;21.46;54.49
46756;BME280;32506;52.826;-1.192;2022-08-19T01:35:38;100443.28;;;21.44;54.38
46756;BME280;32506;52.826;-1.192;2022-08-19T01:38:06;100448.72;;;21.44;54.63
46756;BME280;32506;52.826;-1.192;2022-08-19T01:40:34;100443.56;;;21.43;54.59
46756;BME280;32506;52.826;-1.192;2022-08-19T01:43:00;100450.13;;;21.42;54.23
46756;BME280;32506;52.826;-1.192;2022-08-19T01:45:28;100445.78;;;21.41;54.42
46756;BME280;32506;52.826;-1.192;2022-08-19T01:47:55;100441.72;;;21.38;54.13
46756;BME280;32506;52.826;-1.192;2022-08-19T01:50:21;100440.91;;;21.38;54.16
46756;BME280;32506;52.826;-1.192;2022-08-19T01:52:47;100443.09;;;21.36;53.71
46756;BME280;32506;52.826;-1.192;2022-08-19T01:55:16;100445.28;;;21.34;53.93
46756;BME280;32506;52.826;-1.192;2022-08-19T01:57:45;100442.06;;;21.32;53.84
46756;BME280;32506;52.826;-1.192;2022-08-19T02:00:14;100449.41;;;21.31;53.93
46756;BME280;32506;52.826;-1.192;2022-08-19T02:02:41;100443.44;;;21.29;53.86
46756;BME280;32506;52.826;-1.192;2022-08-19T02:05:07;100440.72;;;21.29;53.88
46756;BME280;32506;52.826;-1.192;2022-08-19T02:07:34;100440.50;;;21.25;53.74
46756;BME280;32506;52.826;-1.192;2022-08-19T02:10:03;100439.97;;;21.23;53.50
46756;BME280;32506;52.826;-1.192;2022-08-19T02:12:29;100447.31;;;21.23;53.66
46756;BME280;32506;52.826;-1.192;2022-08-19T02:14:54;100452.25;;;21.21;53.56
46756;BME280;32506;52.826;-1.192;2022-08-19T02:17:20;100459.56;;;21.20;53.61
46756;BME280;32506;52.826;-1.192;2022-08-19T02:19:45;100462.88;;;21.17;53.66
46756;BME280;32506;52.826;-1.192;2022-08-19T02:22:11;100462.06;;;21.17;53.37
46756;BME280;32506;52.826;-1.192;2022-08-19T02:24:37;100466.16;;;21.14;53.58
46756;BME280;32506;52.826;-1.192;2022-08-19T02:27:04;100469.97;;;21.13;53.06
46756;BME280;32506;52.826;-1.192;2022-08-19T02:29:31;100475.69;;;21.11;53.02
46756;BME280;32506;52.826;-1.192;2022-08-19T02:31:56;100475.97;;;21.10;53.23
46756;BME280;32506;52.826;-1.192;2022-08-19T02:34:22;100483.59;;;21.08;53.19
46756;BME280;32506;52.826;-1.192;2022-08-19T02:36:47;100485.81;;;21.06;52.97
46756;BME280;32506;52.826;-1.192;2022-08-19T02:39:13;100484.47;;;21.03;52.94
46756;BME280;32506;52.826;-1.192;2022-08-19T02:41:38;100489.34;;;21.01;53.04
46756;BME280;32506;52.826;-1.192;2022-08-19T02:44:04;100486.94;;;21.00;53.37
46756;BME280;32506;52.826;-1.192;2022-08-19T02:46:31;100484.78;;;20.97;52.75
46756;BME280;32506;52.826;-1.192;2022-08-19T02:49:03;100480.44;;;20.95;52.95
46756;BME280;32506;52.826;-1.192;2022-08-19T02:51:39;100479.13;;;20.93;53.22
46756;BME280;32506;52.826;-1.192;2022-08-19T02:54:07;100484.84;;;20.91;53.02
46756;BME280;32506;52.826;-1.192;2022-08-19T02:56:35;100484.28;;;20.89;52.89
46756;BME280;32506;52.826;-1.192;2022-08-19T02:59:02;100489.22;;;20.87;52.94
46756;BME280;32506;52.826;-1.192;2022-08-19T03:01:30;100488.69;;;20.85;53.14
46756;BME280;32506;52.826;-1.192;2022-08-19T03:03:58;100495.47;;;20.83;53.07
46756;BME280;32506;52.826;-1.192;2022-08-19T03:06:24;100502.28;;;20.80;53.38
46756;BME280;32506;52.826;-1.192;2022-08-19T03:08:50;100511.56;;;20.79;53.87
46756;BME280;32506;52.826;-1.192;2022-08-19T03:11:30;100514.56;;;20.77;53.41
46756;BME280;32506;52.826;-1.192;2022-08-19T03:13:56;100518.34;;;20.76;53.40
46756;BME280;32506;52.826;-1.192;2022-08-19T03:16:24;100517.81;;;20.74;53.25
46756;BME280;32506;52.826;-1.192;2022-08-19T03:18:51;100515.69;;;20.71;52.91
46756;BME280;32506;52.826;-1.192;2022-08-19T03:21:24;100524.91;;;20.70;52.35
46756;BME280;32506;52.826;-1.192;2022-08-19T03:23:53;100522.75;;;20.67;52.01
46756;BME280;32506;52.826;-1.192;2022-08-19T03:26:19;100520.31;;;20.66;51.84
46756;BME280;32506;52.826;-1.192;2022-08-19T03:28:45;100518.13;;;20.62;51.68
46756;BME280;32506;52.826;-1.192;2022-08-19T03:31:16;100519.53;;;20.60;51.15
46756;BME280;32506;52.826;-1.192;2022-08-19T03:33:43;100524.72;;;20.56;50.92
46756;BME280;32506;52.826;-1.192;2022-08-19T03:36:18;100530.72;;;20.53;50.65
46756;BME280;32506;52.826;-1.192;2022-08-19T03:38:49;100529.63;;;20.49;50.59
46756;BME280;32506;52.826;-1.192;2022-08-19T03:41:21;100541.88;;;20.47;50.16
46756;BME280;32506;52.826;-1.192;2022-08-19T03:43:47;100540.78;;;20.42;49.96
46756;BME280;32506;52.826;-1.192;2022-08-19T03:46:16;100544.34;;;20.38;49.79
46756;BME280;32506;52.826;-1.192;2022-08-19T03:48:43;100540.56;;;20.34;49.52
46756;BME280;32506;52.826;-1.192;2022-08-19T03:51:30;100544.66;;;20.31;49.42
46756;BME280;32506;52.826;-1.192;2022-08-19T03:53:57;100540.34;;;20.25;49.36
46756;BME280;32506;52.826;-1.192;2022-08-19T03:56:23;100541.19;;;20.20;49.03
46756;BME280;32506;52.826;-1.192;2022-08-19T03:58:51;100546.34;;;20.17;48.86
46756;BME280;32506;52.826;-1.192;2022-08-19T04:01:20;100544.47;;;20.12;48.75
46756;BME280;32506;52.826;-1.192;2022-08-19T04:03:47;100543.41;;;20.08;48.59
46756;BME280;32506;52.826;-1.192;2022-08-19T04:06:21;100546.94;;;20.03;48.44
46756;BME280;32506;52.826;-1.192;2022-08-19T04:08:49;100545.06;;;19.99;48.25
46756;BME280;32506;52.826;-1.192;2022-08-19T04:11:23;100542.38;;;19.93;48.18
46756;BME280;32506;52.826;-1.192;2022-08-19T04:13:50;100537.78;;;19.89;48.08
46756;BME280;32506;52.826;-1.192;2022-08-19T04:16:20;100542.41;;;19.83;47.87
46756;BME280;32506;52.826;-1.192;2022-08-19T04:18:47;100552.97;;;19.79;47.65
46756;BME280;32506;52.826;-1.192;2022-08-19T04:21:18;100549.44;;;19.74;47.70
46756;BME280;32506;52.826;-1.192;2022-08-19T04:23:44;100552.97;;;19.69;47.71
46756;BME280;32506;52.826;-1.192;2022-08-19T04:26:15;100559.50;;;19.63;47.62
46756;BME280;32506;52.826;-1.192;2022-08-19T04:28:42;100564.13;;;19.57;47.49
46756;BME280;32506;52.826;-1.192;2022-08-19T04:31:17;100563.31;;;19.52;47.32
46756;BME280;32506;52.826;-1.192;2022-08-19T04:33:42;100559.81;;;19.46;47.32
46756;BME280;32506;52.826;-1.192;2022-08-19T04:36:22;100557.91;;;19.41;47.22
46756;BME280;32506;52.826;-1.192;2022-08-19T04:38:48;100564.41;;;19.35;47.35
46756;BME280;32506;52.826;-1.192;2022-08-19T04:41:14;100566.31;;;19.29;47.12
46756;BME280;32506;52.826;-1.192;2022-08-19T04:43:59;100579.88;;;19.24;47.07
46756;BME280;32506;52.826;-1.192;2022-08-19T04:46:24;100574.44;;;19.19;47.03
46756;BME280;32506;52.826;-1.192;2022-08-19T04:48:50;100570.94;;;19.14;46.89
46756;BME280;32506;52.826;-1.192;2022-08-19T04:51:15;100563.06;;;19.07;46.95
46756;BME280;32506;52.826;-1.192;2022-08-19T04:53:42;100573.91;;;19.02;46.90
46756;BME280;32506;52.826;-1.192;2022-08-19T04:56:11;100579.31;;;18.97;46.97
46756;BME280;32506;52.826;-1.192;2022-08-19T04:58:38;100587.41;;;18.91;46.82
46756;BME280;32506;52.826;-1.192;2022-08-19T05:01:06;100593.63;;;18.87;47.03
46756;BME280;32506;52.826;-1.192;2022-08-19T05:03:34;100609.28;;;18.79;46.69
46756;BME280;32506;52.826;-1.192;2022-08-19T05:06:10;100609.00;;;18.76;46.75
46756;BME280;32506;52.826;-1.192;2022-08-19T05:08:38;100606.00;;;18.67;46.70
46756;BME280;32506;52.826;-1.192;2022-08-19T05:11:11;100615.75;;;18.63;46.66
46756;BME280;32506;52.826;-1.192;2022-08-19T05:13:38;100619.22;;;18.58;46.74
46756;BME280;32506;52.826;-1.192;2022-08-19T05:16:03;100618.69;;;18.51;46.57
46756;BME280;32506;52.826;-1.192;2022-08-19T05:18:29;100620.28;;;18.47;46.57
46756;BME280;32506;52.826;-1.192;2022-08-19T05:21:16;100615.91;;;18.41;46.71
46756;BME280;32506;52.826;-1.192;2022-08-19T05:24:01;100621.56;;;18.34;46.62
46756;BME280;32506;52.826;-1.192;2022-08-19T05:26:27;100627.78;;;18.30;46.52
46756;BME280;32506;52.826;-1.192;2022-08-19T05:28:53;100623.97;;;18.25;46.56
46756;BME280;32506;52.826;-1.192;2022-08-19T05:31:19;100627.47;;;18.21;46.67
46756;BME280;32506;52.826;-1.192;2022-08-19T05:33:45;100627.47;;;18.16;46.69
46756;BME280;32506;52.826;-1.192;2022-08-19T05:36:11;100625.53;;;18.11;46.81
46756;BME280;32506;52.826;-1.192;2022-08-19T05:38:37;100621.72;;;18.07;46.81
46756;BME280;32506;52.826;-1.192;2022-08-19T05:41:07;100629.53;;;18.03;46.63
46756;BME280;32506;52.826;-1.192;2022-08-19T05:43:33;100631.97;;;18.00;46.85
46756;BME280;32506;52.826;-1.192;2022-08-19T05:45:59;100637.34;;;17.94;46.82
46756;BME280;32506;52.826;-1.192;2022-08-19T05:48:24;100632.44;;;17.91;46.90
46756;BME280;32506;52.826;-1.192;2022-08-19T05:50:51;100642.09;;;17.87;47.20
46756;BME280;32506;52.826;-1.192;2022-08-19T05:53:18;100651.81;;;17.83;47.11
46756;BME280;32506;52.826;-1.192;2022-08-19T05:55:43;100657.75;;;17.80;47.41
46756;BME280;32506;52.826;-1.192;2022-08-19T05:58:09;100668.03;;;17.78;47.51
46756;BME280;32506;52.826;-1.192;2022-08-19T06:00:36;100659.88;;;17.73;47.64
46756;BME280;32506;52.826;-1.192;2022-08-19T06:03:02;100666.59;;;17.70;47.66
46756;BME280;32506;52.826;-1.192;2022-08-19T06:05:29;100667.94;;;17.68;47.41
46756;BME280;32506;52.826;-1.192;2022-08-19T06:07:55;100665.75;;;17.65;47.43
46756;BME280;32506;52.826;-1.192;2022-08-19T06:10:21;100660.84;;;17.61;47.30
46756;BME280;32506;52.826;-1.192;2022-08-19T06:12:48;100661.38;;;17.58;47.30
46756;BME280;32506;52.826;-1.192;2022-08-19T06:15:14;100671.38;;;17.58;47.22
46756;BME280;32506;52.826;-1.192;2022-08-19T06:17:42;100668.09;;;17.56;47.40
46756;BME280;32506;52.826;-1.192;2022-08-19T06:20:13;100665.09;;;17.52;47.33
46756;BME280;32506;52.826;-1.192;2022-08-19T06:22:46;100669.69;;;17.52;47.46
46756;BME280;32506;52.826;-1.192;2022-08-19T06:25:13;100670.22;;;17.49;47.28
46756;BME280;32506;52.826;-1.192;2022-08-19T06:27:40;100675.03;;;17.47;47.65
46756;BME280;32506;52.826;-1.192;2022-08-19T06:30:06;100676.38;;;17.44;47.71
46756;BME280;32506;52.826;-1.192;2022-08-19T06:32:32;100684.72;;;17.42;47.68
46756;BME280;32506;52.826;-1.192;2022-08-19T06:34:57;100681.47;;;17.40;47.64
46756;BME280;32506;52.826;-1.192;2022-08-19T06:37:23;100685.25;;;17.39;47.74
46756;BME280;32506;52.826;-1.192;2022-08-19T06:39:49;100686.56;;;17.37;47.83
46756;BME280;32506;52.826;-1.192;2022-08-19T06:42:14;100677.63;;;17.36;48.05
46756;BME280;32506;52.826;-1.192;2022-08-19T06:44:45;100681.44;;;17.35;48.07
46756;BME280;32506;52.826;-1.192;2022-08-19T06:47:15;100684.13;;;17.35;48.08
46756;BME280;32506;52.826;-1.192;2022-08-19T06:49:42;100682.50;;;17.34;48.21
46756;BME280;32506;52.826;-1.192;2022-08-19T06:52:09;100681.69;;;17.34;48.38
46756;BME280;32506;52.826;-1.192;2022-08-19T06:54:37;100685.47;;;17.33;48.38
46756;BME280;32506;52.826;-1.192;2022-08-19T06:57:05;100688.16;;;17.33;48.55
46756;BME280;32506;52.826;-1.192;2022-08-19T06:59:32;100690.59;;;17.34;48.44
46756;BME280;32506;52.826;-1.192;2022-08-19T07:02:04;100694.38;;;17.33;48.66
46756;BME280;32506;52.826;-1.192;2022-08-19T07:04:34;100694.38;;;17.33;48.86
46756;BME280;32506;52.826;-1.192;2022-08-19T07:07:07;100685.19;;;17.34;48.59
46756;BME280;32506;52.826;-1.192;2022-08-19T07:09:36;100685.19;;;17.34;48.96
46756;BME280;32506;52.826;-1.192;2022-08-19T07:12:08;100693.31;;;17.34;48.92
46756;BME280;32506;52.826;-1.192;2022-08-19T07:14:38;100694.38;;;17.33;48.66
46756;BME280;32506;52.826;-1.192;2022-08-19T07:17:06;100698.44;;;17.36;48.94
46756;BME280;32506;52.826;-1.192;2022-08-19T07:19:32;100701.94;;;17.36;49.04
46756;BME280;32506;52.826;-1.192;2022-08-19T07:22:01;100695.47;;;17.37;49.09
46756;BME280;32506;52.826;-1.192;2022-08-19T07:24:27;100697.38;;;17.37;48.93
46756;BME280;32506;52.826;-1.192;2022-08-19T07:26:55;100699.81;;;17.38;48.64
46756;BME280;32506;52.826;-1.192;2022-08-19T07:29:22;100700.63;;;17.39;48.59
46756;BME280;32506;52.826;-1.192;2022-08-19T07:31:52;100709.31;;;17.41;48.52
46756;BME280;32506;52.826;-1.192;2022-08-19T07:34:18;100704.69;;;17.41;48.46
46756;BME280;32506;52.826;-1.192;2022-08-19T07:36:45;100697.97;;;17.44;48.71
46756;BME280;32506;52.826;-1.192;2022-08-19T07:39:14;100699.63;;;17.45;49.22
46756;BME280;32506;52.826;-1.192;2022-08-19T07:41:40;100702.06;;;17.47;49.12
46756;BME280;32506;52.826;-1.192;2022-08-19T07:44:07;100706.13;;;17.49;49.61
46756;BME280;32506;52.826;-1.192;2022-08-19T07:46:36;100713.97;;;17.51;50.01
46756;BME280;32506;52.826;-1.192;2022-08-19T07:49:04;100711.84;;;17.53;49.91
46756;BME280;32506;52.826;-1.192;2022-08-19T07:51:30;100713.22;;;17.55;50.06
46756;BME280;32506;52.826;-1.192;2022-08-19T07:53:55;100714.34;;;17.59;50.23
46756;BME280;32506;52.826;-1.192;2022-08-19T07:56:22;100723.84;;;17.62;50.49
46756;BME280;32506;52.826;-1.192;2022-08-19T07:58:50;100724.09;;;17.66;50.76
46756;BME280;32506;52.826;-1.192;2022-08-19T08:01:21;100719.81;;;17.70;51.11
46756;BME280;32506;52.826;-1.192;2022-08-19T08:03:48;100729.31;;;17.72;51.10
46756;BME280;32506;52.826;-1.192;2022-08-19T08:06:32;100732.06;;;17.77;51.20
46756;BME280;32506;52.826;-1.192;2022-08-19T08:09:23;100733.75;;;17.84;51.42
46756;BME280;32506;52.826;-1.192;2022-08-19T08:14:22;100736.53;;;17.94;51.68
46756;BME280;32506;52.826;-1.192;2022-08-19T08:16:48;100742.81;;;18.00;51.75
46756;BME280;32506;52.826;-1.192;2022-08-19T08:19:15;100737.19;;;18.06;52.06
46756;BME280;32506;52.826;-1.192;2022-08-19T08:21:41;100741.56;;;18.13;51.66
46756;BME280;32506;52.826;-1.192;2022-08-19T08:24:07;100742.16;;;18.20;51.79
46756;BME280;32506;52.826;-1.192;2022-08-19T08:26:32;100746.25;;;18.27;52.08
46756;BME280;32506;52.826;-1.192;2022-08-19T08:28:58;100749.28;;;18.36;52.48
46756;BME280;32506;52.826;-1.192;2022-08-19T08:31:23;100746.91;;;18.45;52.05
46756;BME280;32506;52.826;-1.192;2022-08-19T08:33:49;100741.03;;;18.53;51.90
46756;BME280;32506;52.826;-1.192;2022-08-19T08:36:15;100742.97;;;18.63;52.10
46756;BME280;32506;52.826;-1.192;2022-08-19T08:38:42;100735.13;;;18.72;51.85
46756;BME280;32506;52.826;-1.192;2022-08-19T08:43:55;100741.22;;;18.94;51.75
46756;BME280;32506;52.826;-1.192;2022-08-19T08:46:53;100739.66;;;19.09;51.37
46756;BME280;32506;52.826;-1.192;2022-08-19T08:51:59;100748.41;;;19.32;50.90
46756;BME280;32506;52.826;-1.192;2022-08-19T08:54:32;100754.38;;;19.44;50.79
46756;BME280;32506;52.826;-1.192;2022-08-19T08:56:59;100753.06;;;19.57;50.59
46756;BME280;32506;52.826;-1.192;2022-08-19T08:59:31;100738.13;;;19.70;50.68
46756;BME280;32506;52.826;-1.192;2022-08-19T09:02:00;100739.53;;;19.83;50.75
46756;BME280;32506;52.826;-1.192;2022-08-19T09:04:26;100736.28;;;19.96;50.38
46756;BME280;32506;52.826;-1.192;2022-08-19T09:07:01;100733.03;;;20.09;50.29
46756;BME280;32506;52.826;-1.192;2022-08-19T09:09:40;100749.28;;;20.25;50.13
46756;BME280;32506;52.826;-1.192;2022-08-19T09:12:32;100746.28;;;20.37;49.64
46756;BME280;32506;52.826;-1.192;2022-08-19T09:15:08;100741.09;;;20.51;49.09
46756;BME280;32506;52.826;-1.192;2022-08-19T09:17:35;100738.06;;;20.62;48.30
46756;BME280;32506;52.826;-1.192;2022-08-19T09:20:14;100745.41;;;20.77;48.19
46756;BME280;32506;52.826;-1.192;2022-08-19T09:22:42;100745.88;;;20.90;47.88
46756;BME280;32506;52.826;-1.192;2022-08-19T09:25:14;100744.44;;;21.03;47.94
46756;BME280;32506;52.826;-1.192;2022-08-19T09:27:41;100750.09;;;21.17;47.47
46756;BME280;32506;52.826;-1.192;2022-08-19T09:30:10;100741.06;;;21.32;47.42
46756;BME280;32506;52.826;-1.192;2022-08-19T09:32:35;100745.56;;;21.46;47.40
46756;BME280;32506;52.826;-1.192;2022-08-19T09:35:01;100740.03;;;21.62;47.24
46756;BME280;32506;52.826;-1.192;2022-08-19T09:37:27;100753.53;;;21.77;46.62
46756;BME280;32506;52.826;-1.192;2022-08-19T09:39:52;100754.22;;;21.93;46.09
46756;BME280;32506;52.826;-1.192;2022-08-19T09:42:18;100752.19;;;22.09;45.87
46756;BME280;32506;52.826;-1.192;2022-08-19T09:44:44;100752.88;;;22.25;45.58
46756;BME280;32506;52.826;-1.192;2022-08-19T09:47:11;100755.97;;;22.43;45.63
46756;BME280;32506;52.826;-1.192;2022-08-19T09:49:38;100744.09;;;22.58;45.45
46756;BME280;32506;52.826;-1.192;2022-08-19T09:52:05;100744.75;;;22.74;44.04
46756;BME280;32506;52.826;-1.192;2022-08-19T09:54:31;100744.53;;;22.89;44.02
46756;BME280;32506;52.826;-1.192;2022-08-19T09:56:58;100744.66;;;23.03;43.64
46756;BME280;32506;52.826;-1.192;2022-08-19T09:59:25;100750.22;;;23.17;43.73
46756;BME280;32506;52.826;-1.192;2022-08-19T10:01:51;100749.47;;;23.31;43.21
46756;BME280;32506;52.826;-1.192;2022-08-19T10:04:17;100754.19;;;23.44;43.14
46756;BME280;32506;52.826;-1.192;2022-08-19T10:06:42;100751.53;;;23.58;42.54
46756;BME280;32506;52.826;-1.192;2022-08-19T10:09:09;100757.06;;;23.72;42.51
46756;BME280;32506;52.826;-1.192;2022-08-19T10:11:38;100747.59;;;23.83;42.49
46756;BME280;32506;52.826;-1.192;2022-08-19T10:14:05;100756.66;;;23.98;41.31
46756;BME280;32506;52.826;-1.192;2022-08-19T10:16:34;100758.31;;;24.12;41.80
46756;BME280;32506;52.826;-1.192;2022-08-19T10:19:01;100756.44;;;24.27;41.65
46756;BME280;32506;52.826;-1.192;2022-08-19T10:21:29;100752.59;;;24.42;41.30
46756;BME280;32506;52.826;-1.192;2022-08-19T10:23:58;100743.28;;;24.57;41.20
46756;BME280;32506;52.826;-1.192;2022-08-19T10:26:29;100747.66;;;24.72;40.82
46756;BME280;32506;52.826;-1.192;2022-08-19T10:28:55;100757.47;;;24.87;40.81
46756;BME280;32506;52.826;-1.192;2022-08-19T10:31:24;100762.13;;;25.00;40.56
46756;BME280;32506;52.826;-1.192;2022-08-19T10:33:50;100763.84;;;25.10;40.16
46756;BME280;32506;52.826;-1.192;2022-08-19T10:36:21;100763.59;;;25.20;39.83
46756;BME280;32506;52.826;-1.192;2022-08-19T10:38:53;100770.28;;;25.28;40.11
46756;BME280;32506;52.826;-1.192;2022-08-19T10:41:21;100769.09;;;25.34;39.42
46756;BME280;32506;52.826;-1.192;2022-08-19T10:43:51;100762.34;;;25.40;39.33
46756;BME280;32506;52.826;-1.192;2022-08-19T10:46:18;100763.03;;;25.46;38.61
46756;BME280;32506;52.826;-1.192;2022-08-19T10:48:44;100770.03;;;25.52;37.66
46756;BME280;32506;52.826;-1.192;2022-08-19T10:51:09;100766.88;;;25.59;37.74
46756;BME280;32506;52.826;-1.192;2022-08-19T10:53:54;100773.53;;;25.67;37.95
46756;BME280;32506;52.826;-1.192;2022-08-19T10:56:21;100771.34;;;25.77;37.52
46756;BME280;32506;52.826;-1.192;2022-08-19T10:59:05;100773.03;;;25.87;37.54
46756;BME280;32506;52.826;-1.192;2022-08-19T11:01:32;100764.06;;;25.95;37.37
46756;BME280;32506;52.826;-1.192;2022-08-19T11:04:00;100766.56;;;26.06;36.47
46756;BME280;32506;52.826;-1.192;2022-08-19T11:06:26;100753.41;;;26.17;36.80
46756;BME280;32506;52.826;-1.192;2022-08-19T11:08:54;100757.50;;;26.28;36.75
46756;BME280;32506;52.826;-1.192;2022-08-19T11:11:20;100764.13;;;26.36;36.18
46756;BME280;32506;52.826;-1.192;2022-08-19T11:13:48;100760.63;;;26.44;36.35
46756;BME280;32506;52.826;-1.192;2022-08-19T11:16:24;100751.34;;;26.54;35.80
46756;BME280;32506;52.826;-1.192;2022-08-19T11:18:54;100750.56;;;26.62;35.59
46756;BME280;32506;52.826;-1.192;2022-08-19T11:21:26;100762.38;;;26.71;35.16
46756;BME280;32506;52.826;-1.192;2022-08-19T11:23:55;100752.56;;;26.79;35.32
46756;BME280;32506;52.826;-1.192;2022-08-19T11:26:21;100759.19;;;26.87;34.90
46756;BME280;32506;52.826;-1.192;2022-08-19T11:28:47;100748.25;;;26.95;35.34
46756;BME280;32506;52.826;-1.192;2022-08-19T11:31:19;100757.78;;;27.07;35.14
46756;BME280;32506;52.826;-1.192;2022-08-19T11:33:44;100755.38;;;27.14;35.42
46756;BME280;32506;52.826;-1.192;2022-08-19T11:36:12;100748.78;;;27.24;34.77
46756;BME280;32506;52.826;-1.192;2022-08-19T11:38:37;100752.31;;;27.33;35.05
46756;BME280;32506;52.826;-1.192;2022-08-19T11:41:06;100751.72;;;27.45;34.44
46756;BME280;32506;52.826;-1.192;2022-08-19T11:43:33;100753.31;;;27.55;34.28
46756;BME280;32506;52.826;-1.192;2022-08-19T11:45:59;100748.31;;;27.66;34.52
46756;BME280;32506;52.826;-1.192;2022-08-19T11:48:28;100751.50;;;27.76;34.12
46756;BME280;32506;52.826;-1.192;2022-08-19T11:50:53;100750.34;;;27.86;34.48
46756;BME280;32506;52.826;-1.192;2022-08-19T11:53:22;100749.22;;;27.96;34.69
46756;BME280;32506;52.826;-1.192;2022-08-19T11:55:59;100746.47;;;28.05;33.51
46756;BME280;32506;52.826;-1.192;2022-08-19T11:58:24;100744.84;;;28.12;33.35
46756;BME280;32506;52.826;-1.192;2022-08-19T12:00:51;100750.63;;;28.20;33.34
46756;BME280;32506;52.826;-1.192;2022-08-19T12:03:16;100751.25;;;28.25;32.79
46756;BME280;32506;52.826;-1.192;2022-08-19T12:05:43;100753.47;;;28.32;32.79
46756;BME280;32506;52.826;-1.192;2022-08-19T12:08:09;100749.09;;;28.40;32.81
46756;BME280;32506;52.826;-1.192;2022-08-19T12:10:34;100751.66;;;28.45;32.66
46756;BME280;32506;52.826;-1.192;2022-08-19T12:13:00;100756.97;;;28.50;32.57
46756;BME280;32506;52.826;-1.192;2022-08-19T12:15:27;100762.28;;;28.55;32.57
46756;BME280;32506;52.826;-1.192;2022-08-19T12:17:55;100766.78;;;28.60;32.54
46756;BME280;32506;52.826;-1.192;2022-08-19T12:20:22;100763.09;;;28.65;32.13
46756;BME280;32506;52.826;-1.192;2022-08-19T12:22:48;100754.97;;;28.68;32.26
46756;BME280;32506;52.826;-1.192;2022-08-19T12:25:14;100763.84;;;28.74;31.50
46756;BME280;32506;52.826;-1.192;2022-08-19T12:27:40;100763.97;;;28.77;32.18
46756;BME280;32506;52.826;-1.192;2022-08-19T12:30:07;100763.31;;;28.80;31.81
46756;BME280;32506;52.826;-1.192;2022-08-19T12:32:33;100761.53;;;28.85;31.57
46756;BME280;32506;52.826;-1.192;2022-08-19T12:34:59;100766.81;;;28.90;31.55
46756;BME280;32506;52.826;-1.192;2022-08-19T12:37:24;100762.75;;;28.96;32.01
46756;BME280;32506;52.826;-1.192;2022-08-19T12:39:50;100760.25;;;29.03;31.51
46756;BME280;32506;52.826;-1.192;2022-08-19T12:42:16;100764.09;;;29.11;31.65
46756;BME280;32506;52.826;-1.192;2022-08-19T12:44:44;100756.91;;;29.19;31.63
46756;BME280;32506;52.826;-1.192;2022-08-19T12:47:11;100769.34;;;29.25;32.06
46756;BME280;32506;52.826;-1.192;2022-08-19T12:49:39;100768.38;;;29.29;31.89
46756;BME280;32506;52.826;-1.192;2022-08-19T12:52:07;100766.22;;;29.35;31.57
46756;BME280;32506;52.826;-1.192;2022-08-19T12:54:34;100774.94;;;29.37;31.66